sensor_id;sensor_type;location;lat;lon;timestamp;temperature;humidity
19090;DHT22;9677;50.656;13.064;2023-06-22T00:00:34;25.10;48.10
19090;DHT22;9677;50.656;13.064;2023-06-22T00:03:02;25.30;48.20
19090;DHT22;9677;50.656;13.064;2023-06-22T00:05:30;25.00;48.00
19090;DHT22;9677;50.656;13.064;2023-06-22T00:08:02;25.00;48.00
19090;DHT22;9677;50.656;13.064;2023-06-22T00:10:31;25.00;48.30
19090;DHT22;9677;50.656;13.064;2023-06-22T00:12:59;24.90;48.10
19090;DHT22;9677;50.656;13.064;2023-06-22T00:15:29;25.20;48.20
19090;DHT22;9677;50.656;13.064;2023-06-22T00:17:57;24.80;48.10
19090;DHT22;9677;50.656;13.064;2023-06-22T00:20:26;24.90;48.10
19090;DHT22;9677;50.656;13.064;2023-06-22T00:22:57;24.80;48.20
19090;DHT22;9677;50.656;13.064;2023-06-22T00:25:26;25.00;48.30
19090;DHT22;9677;50.656;13.064;2023-06-22T00:27:54;24.80;48.30
19090;DHT22;9677;50.656;13.064;2023-06-22T00:30:22;24.80;48.20
19090;DHT22;9677;50.656;13.064;2023-06-22T00:32:51;24.70;48.20
19090;DHT22;9677;50.656;13.064;2023-06-22T00:35:19;24.70;48.30
19090;DHT22;9677;50.656;13.064;2023-06-22T00:37:48;24.70;48.40
19090;DHT22;9677;50.656;13.064;2023-06-22T00:40:16;24.70;48.40
19090;DHT22;9677;50.656;13.064;2023-06-22T00:42:48;24.80;48.40
19090;DHT22;9677;50.656;13.064;2023-06-22T00:45:16;24.60;48.40
19090;DHT22;9677;50.656;13.064;2023-06-22T00:47:44;24.60;48.40
19090;DHT22;9677;50.656;13.064;2023-06-22T00:50:19;24.60;48.50
19090;DHT22;9677;50.656;13.064;2023-06-22T00:52:51;24.60;48.70
19090;DHT22;9677;50.656;13.064;2023-06-22T00:55:21;24.50;48.60
19090;DHT22;9677;50.656;13.064;2023-06-22T00:57:50;24.50;48.60
19090;DHT22;9677;50.656;13.064;2023-06-22T01:00:24;24.50;48.60
19090;DHT22;9677;50.656;13.064;2023-06-22T01:02:53;24.50;48.60
19090;DHT22;9677;50.656;13.064;2023-06-22T01:05:24;24.50;48.60
19090;DHT22;9677;50.656;13.064;2023-06-22T01:08:04;24.40;48.60
19090;DHT22;9677;50.656;13.064;2023-06-22T01:10:43;24.40;48.90
19090;DHT22;9677;50.656;13.064;2023-06-22T01:13:26;24.40;48.70
19090;DHT22;9677;50.656;13.064;2023-06-22T01:16:03;24.30;48.70
19090;DHT22;9677;50.656;13.064;2023-06-22T01:18:35;24.30;48.70
19090;DHT22;9677;50.656;13.064;2023-06-22T01:21:06;24.30;48.70
19090;DHT22;9677;50.656;13.064;2023-06-22T01:23:51;24.10;48.60
19090;DHT22;9677;50.656;13.064;2023-06-22T01:26:35;24.30;49.00
19090;DHT22;9677;50.656;13.064;2023-06-22T01:29:10;24.30;48.90
19090;DHT22;9677;50.656;13.064;2023-06-22T01:31:41;24.20;48.80
19090;DHT22;9677;50.656;13.064;2023-06-22T01:34:12;24.40;48.80
19090;DHT22;9677;50.656;13.064;2023-06-22T01:36:41;24.20;48.70
19090;DHT22;9677;50.656;13.064;2023-06-22T01:39:11;24.20;48.70
19090;DHT22;9677;50.656;13.064;2023-06-22T01:41:41;24.10;48.70
19090;DHT22;9677;50.656;13.064;2023-06-22T01:44:12;24.10;48.70
19090;DHT22;9677;50.656;13.064;2023-06-22T01:46:41;24.00;48.80
19090;DHT22;9677;50.656;13.064;2023-06-22T01:49:09;24.00;48.70
19090;DHT22;9677;50.656;13.064;2023-06-22T01:51:37;24.00;48.70
19090;DHT22;9677;50.656;13.064;2023-06-22T01:54:06;24.00;48.80
19090;DHT22;9677;50.656;13.064;2023-06-22T01:56:35;24.00;48.80
19090;DHT22;9677;50.656;13.064;2023-06-22T01:59:07;23.90;48.70
19090;DHT22;9677;50.656;13.064;2023-06-22T02:01:42;23.90;48.90
19090;DHT22;9677;50.656;13.064;2023-06-22T02:04:13;23.90;48.90
19090;DHT22;9677;50.656;13.064;2023-06-22T02:06:47;23.80;48.90
19090;DHT22;9677;50.656;13.064;2023-06-22T02:09:20;23.80;49.50
19090;DHT22;9677;50.656;13.064;2023-06-22T02:11:51;23.80;49.00
19090;DHT22;9677;50.656;13.064;2023-06-22T02:14:23;23.80;49.00
19090;DHT22;9677;50.656;13.064;2023-06-22T02:16:53;23.70;48.90
19090;DHT22;9677;50.656;13.064;2023-06-22T02:19:23;23.70;48.90
19090;DHT22;9677;50.656;13.064;2023-06-22T02:21:52;23.70;49.00
19090;DHT22;9677;50.656;13.064;2023-06-22T02:24:20;23.70;49.00
19090;DHT22;9677;50.656;13.064;2023-06-22T02:26:50;23.60;49.00
19090;DHT22;9677;50.656;13.064;2023-06-22T02:29:18;23.60;48.90
19090;DHT22;9677;50.656;13.064;2023-06-22T02:31:46;23.60;49.00
19090;DHT22;9677;50.656;13.064;2023-06-22T02:34:15;23.50;49.00
19090;DHT22;9677;50.656;13.064;2023-06-22T02:36:45;23.50;49.10
19090;DHT22;9677;50.656;13.064;2023-06-22T02:39:19;23.40;49.00
19090;DHT22;9677;50.656;13.064;2023-06-22T02:41:49;23.40;49.20
19090;DHT22;9677;50.656;13.064;2023-06-22T02:44:17;23.40;49.20
19090;DHT22;9677;50.656;13.064;2023-06-22T02:46:48;23.40;49.30
19090;DHT22;9677;50.656;13.064;2023-06-22T02:49:18;23.40;49.30
19090;DHT22;9677;50.656;13.064;2023-06-22T02:51:47;23.30;49.30
19090;DHT22;9677;50.656;13.064;2023-06-22T02:54:19;23.30;49.30
19090;DHT22;9677;50.656;13.064;2023-06-22T02:56:52;23.40;49.40
19090;DHT22;9677;50.656;13.064;2023-06-22T02:59:21;23.20;49.30
19090;DHT22;9677;50.656;13.064;2023-06-22T03:01:53;23.20;49.30
19090;DHT22;9677;50.656;13.064;2023-06-22T03:04:27;23.20;49.30
19090;DHT22;9677;50.656;13.064;2023-06-22T03:06:55;23.20;49.40
19090;DHT22;9677;50.656;13.064;2023-06-22T03:09:28;23.10;49.30
19090;DHT22;9677;50.656;13.064;2023-06-22T03:11:57;23.10;49.30
19090;DHT22;9677;50.656;13.064;2023-06-22T03:14:32;23.10;49.40
19090;DHT22;9677;50.656;13.064;2023-06-22T03:17:01;23.00;49.40
19090;DHT22;9677;50.656;13.064;2023-06-22T03:19:31;23.00;49.50
19090;DHT22;9677;50.656;13.064;2023-06-22T03:22:00;23.00;49.50
19090;DHT22;9677;50.656;13.064;2023-06-22T03:24:28;23.00;49.60
19090;DHT22;9677;50.656;13.064;2023-06-22T03:26:56;22.90;49.50
19090;DHT22;9677;50.656;13.064;2023-06-22T03:29:24;22.90;49.60
19090;DHT22;9677;50.656;13.064;2023-06-22T03:31:57;22.80;49.60
19090;DHT22;9677;50.656;13.064;2023-06-22T03:34:26;22.80;49.80
19090;DHT22;9677;50.656;13.064;2023-06-22T03:36:55;22.80;49.80
19090;DHT22;9677;50.656;13.064;2023-06-22T03:39:23;22.70;49.80
19090;DHT22;9677;50.656;13.064;2023-06-22T03:41:52;22.70;49.90
19090;DHT22;9677;50.656;13.064;2023-06-22T03:44:20;22.70;50.00
19090;DHT22;9677;50.656;13.064;2023-06-22T03:46:48;22.70;50.10
19090;DHT22;9677;50.656;13.064;2023-06-22T03:49:18;22.60;50.10
19090;DHT22;9677;50.656;13.064;2023-06-22T03:51:46;22.80;50.20
19090;DHT22;9677;50.656;13.064;2023-06-22T03:54:16;22.60;50.20
19090;DHT22;9677;50.656;13.064;2023-06-22T03:56:44;22.50;50.30
19090;DHT22;9677;50.656;13.064;2023-06-22T03:59:12;22.50;50.30
19090;DHT22;9677;50.656;13.064;2023-06-22T04:01:40;22.50;50.40
19090;DHT22;9677;50.656;13.064;2023-06-22T04:04:08;22.50;50.40
19090;DHT22;9677;50.656;13.064;2023-06-22T04:06:36;22.50;50.50
19090;DHT22;9677;50.656;13.064;2023-06-22T04:09:06;22.50;50.70
19090;DHT22;9677;50.656;13.064;2023-06-22T04:11:35;22.50;50.60
19090;DHT22;9677;50.656;13.064;2023-06-22T04:14:03;22.40;50.60
19090;DHT22;9677;50.656;13.064;2023-06-22T04:16:32;22.50;50.60
19090;DHT22;9677;50.656;13.064;2023-06-22T04:19:00;22.40;51.00
19090;DHT22;9677;50.656;13.064;2023-06-22T04:21:28;22.40;50.70
19090;DHT22;9677;50.656;13.064;2023-06-22T04:23:56;22.40;50.70
19090;DHT22;9677;50.656;13.064;2023-06-22T04:26:24;22.40;50.80
19090;DHT22;9677;50.656;13.064;2023-06-22T04:28:53;22.40;50.80
19090;DHT22;9677;50.656;13.064;2023-06-22T04:31:22;22.40;51.00
19090;DHT22;9677;50.656;13.064;2023-06-22T04:34:00;22.40;51.00
19090;DHT22;9677;50.656;13.064;2023-06-22T04:36:34;22.40;51.10
19090;DHT22;9677;50.656;13.064;2023-06-22T04:39:05;22.40;51.20
19090;DHT22;9677;50.656;13.064;2023-06-22T04:41:37;22.40;51.20
19090;DHT22;9677;50.656;13.064;2023-06-22T04:44:15;22.40;51.20
19090;DHT22;9677;50.656;13.064;2023-06-22T04:46:51;22.40;51.40
19090;DHT22;9677;50.656;13.064;2023-06-22T04:49:21;22.40;51.30
19090;DHT22;9677;50.656;13.064;2023-06-22T04:51:49;22.50;51.40
19090;DHT22;9677;50.656;13.064;2023-06-22T04:54:18;22.50;51.40
19090;DHT22;9677;50.656;13.064;2023-06-22T04:56:46;22.50;51.40
19090;DHT22;9677;50.656;13.064;2023-06-22T04:59:16;22.50;51.30
19090;DHT22;9677;50.656;13.064;2023-06-22T05:01:45;22.50;51.40
19090;DHT22;9677;50.656;13.064;2023-06-22T05:04:13;22.50;51.40
19090;DHT22;9677;50.656;13.064;2023-06-22T05:06:41;22.50;51.50
19090;DHT22;9677;50.656;13.064;2023-06-22T05:09:09;22.50;51.50
19090;DHT22;9677;50.656;13.064;2023-06-22T05:11:38;22.50;51.50
19090;DHT22;9677;50.656;13.064;2023-06-22T05:14:06;22.50;51.60
19090;DHT22;9677;50.656;13.064;2023-06-22T05:16:36;22.50;51.60
19090;DHT22;9677;50.656;13.064;2023-06-22T05:19:05;22.50;51.80
19090;DHT22;9677;50.656;13.064;2023-06-22T05:21:33;22.50;51.70
19090;DHT22;9677;50.656;13.064;2023-06-22T05:24:01;22.50;51.80
19090;DHT22;9677;50.656;13.064;2023-06-22T05:26:30;22.70;52.00
19090;DHT22;9677;50.656;13.064;2023-06-22T05:28:59;22.60;52.10
19090;DHT22;9677;50.656;13.064;2023-06-22T05:31:28;22.60;52.20
19090;DHT22;9677;50.656;13.064;2023-06-22T05:33:57;22.60;52.30
19090;DHT22;9677;50.656;13.064;2023-06-22T05:36:26;22.70;52.40
19090;DHT22;9677;50.656;13.064;2023-06-22T05:38:56;22.70;52.50
19090;DHT22;9677;50.656;13.064;2023-06-22T05:41:25;22.70;52.60
19090;DHT22;9677;50.656;13.064;2023-06-22T05:43:53;22.80;52.60
19090;DHT22;9677;50.656;13.064;2023-06-22T05:46:21;22.80;52.70
19090;DHT22;9677;50.656;13.064;2023-06-22T05:48:49;22.80;52.80
19090;DHT22;9677;50.656;13.064;2023-06-22T05:51:18;22.90;52.80
19090;DHT22;9677;50.656;13.064;2023-06-22T05:53:47;22.90;52.80
19090;DHT22;9677;50.656;13.064;2023-06-22T05:56:17;23.00;52.80
19090;DHT22;9677;50.656;13.064;2023-06-22T05:58:45;23.00;52.90
19090;DHT22;9677;50.656;13.064;2023-06-22T06:01:13;23.10;53.00
19090;DHT22;9677;50.656;13.064;2023-06-22T06:03:42;23.10;53.00
19090;DHT22;9677;50.656;13.064;2023-06-22T06:06:11;23.20;53.10
19090;DHT22;9677;50.656;13.064;2023-06-22T06:08:41;23.20;53.10
19090;DHT22;9677;50.656;13.064;2023-06-22T06:11:09;23.30;54.00
19090;DHT22;9677;50.656;13.064;2023-06-22T06:13:37;23.30;53.30
19090;DHT22;9677;50.656;13.064;2023-06-22T06:16:05;23.40;53.30
19090;DHT22;9677;50.656;13.064;2023-06-22T06:18:33;23.50;53.40
19090;DHT22;9677;50.656;13.064;2023-06-22T06:21:01;23.50;53.30
19090;DHT22;9677;50.656;13.064;2023-06-22T06:23:29;23.60;53.40
19090;DHT22;9677;50.656;13.064;2023-06-22T06:25:59;23.60;54.10
19090;DHT22;9677;50.656;13.064;2023-06-22T06:28:28;23.70;53.60
19090;DHT22;9677;50.656;13.064;2023-06-22T06:30:56;23.70;53.70
19090;DHT22;9677;50.656;13.064;2023-06-22T06:33:24;23.80;53.70
19090;DHT22;9677;50.656;13.064;2023-06-22T06:35:52;23.80;53.80
19090;DHT22;9677;50.656;13.064;2023-06-22T06:38:22;23.90;53.90
19090;DHT22;9677;50.656;13.064;2023-06-22T06:40:50;24.00;54.00
19090;DHT22;9677;50.656;13.064;2023-06-22T06:43:20;24.00;54.00
19090;DHT22;9677;50.656;13.064;2023-06-22T06:45:48;24.10;54.20
19090;DHT22;9677;50.656;13.064;2023-06-22T06:48:18;24.20;54.20
19090;DHT22;9677;50.656;13.064;2023-06-22T06:50:46;24.30;54.20
19090;DHT22;9677;50.656;13.064;2023-06-22T06:53:15;24.30;54.20
19090;DHT22;9677;50.656;13.064;2023-06-22T06:55:43;24.40;54.30
19090;DHT22;9677;50.656;13.064;2023-06-22T06:58:12;24.50;54.40
19090;DHT22;9677;50.656;13.064;2023-06-22T07:00:43;24.60;54.40
19090;DHT22;9677;50.656;13.064;2023-06-22T07:03:11;24.70;54.50
19090;DHT22;9677;50.656;13.064;2023-06-22T07:05:39;24.70;54.70
19090;DHT22;9677;50.656;13.064;2023-06-22T07:08:07;24.90;54.40
19090;DHT22;9677;50.656;13.064;2023-06-22T07:10:36;24.90;54.40
19090;DHT22;9677;50.656;13.064;2023-06-22T07:13:04;25.00;54.30
19090;DHT22;9677;50.656;13.064;2023-06-22T07:15:32;25.10;54.30
19090;DHT22;9677;50.656;13.064;2023-06-22T07:18:02;25.30;54.30
19090;DHT22;9677;50.656;13.064;2023-06-22T07:20:30;25.40;54.30
19090;DHT22;9677;50.656;13.064;2023-06-22T07:22:59;25.40;54.10
19090;DHT22;9677;50.656;13.064;2023-06-22T07:25:27;25.50;54.10
19090;DHT22;9677;50.656;13.064;2023-06-22T07:28:00;25.70;54.20
19090;DHT22;9677;50.656;13.064;2023-06-22T07:30:30;25.80;54.40
19090;DHT22;9677;50.656;13.064;2023-06-22T07:33:01;26.10;54.40
19090;DHT22;9677;50.656;13.064;2023-06-22T07:35:32;26.10;54.20
19090;DHT22;9677;50.656;13.064;2023-06-22T07:38:01;26.20;54.10
19090;DHT22;9677;50.656;13.064;2023-06-22T07:40:32;26.50;54.10
19090;DHT22;9677;50.656;13.064;2023-06-22T07:43:01;26.60;54.00
19090;DHT22;9677;50.656;13.064;2023-06-22T07:45:30;26.70;53.80
19090;DHT22;9677;50.656;13.064;2023-06-22T07:48:01;26.80;53.70
19090;DHT22;9677;50.656;13.064;2023-06-22T07:50:30;27.00;53.70
19090;DHT22;9677;50.656;13.064;2023-06-22T07:52:58;27.20;53.50
19090;DHT22;9677;50.656;13.064;2023-06-22T07:55:26;27.30;53.40
19090;DHT22;9677;50.656;13.064;2023-06-22T07:57:56;27.50;53.40
19090;DHT22;9677;50.656;13.064;2023-06-22T08:00:25;27.70;53.30
19090;DHT22;9677;50.656;13.064;2023-06-22T08:02:53;27.90;53.10
19090;DHT22;9677;50.656;13.064;2023-06-22T08:05:22;28.00;52.90
19090;DHT22;9677;50.656;13.064;2023-06-22T08:07:51;28.40;52.70
19090;DHT22;9677;50.656;13.064;2023-06-22T08:10:20;28.50;52.50
19090;DHT22;9677;50.656;13.064;2023-06-22T08:12:48;28.60;52.20
19090;DHT22;9677;50.656;13.064;2023-06-22T08:15:16;28.80;52.10
19090;DHT22;9677;50.656;13.064;2023-06-22T08:17:44;29.00;52.00
19090;DHT22;9677;50.656;13.064;2023-06-22T08:20:13;29.20;51.90
19090;DHT22;9677;50.656;13.064;2023-06-22T08:22:43;29.40;51.30
19090;DHT22;9677;50.656;13.064;2023-06-22T08:25:11;29.70;51.60
19090;DHT22;9677;50.656;13.064;2023-06-22T08:27:40;29.70;51.10
19090;DHT22;9677;50.656;13.064;2023-06-22T08:30:09;30.10;51.20
19090;DHT22;9677;50.656;13.064;2023-06-22T08:32:38;30.10;50.80
19090;DHT22;9677;50.656;13.064;2023-06-22T08:35:07;30.40;50.60
19090;DHT22;9677;50.656;13.064;2023-06-22T08:37:36;30.50;50.20
19090;DHT22;9677;50.656;13.064;2023-06-22T08:40:09;30.70;50.10
19090;DHT22;9677;50.656;13.064;2023-06-22T08:42:39;30.90;49.80
19090;DHT22;9677;50.656;13.064;2023-06-22T08:45:09;31.00;49.80
19090;DHT22;9677;50.656;13.064;2023-06-22T08:47:38;31.20;49.60
19090;DHT22;9677;50.656;13.064;2023-06-22T08:50:08;31.50;49.60
19090;DHT22;9677;50.656;13.064;2023-06-22T08:52:37;31.60;49.30
19090;DHT22;9677;50.656;13.064;2023-06-22T08:55:10;31.70;49.00
19090;DHT22;9677;50.656;13.064;2023-06-22T08:57:38;31.90;48.70
19090;DHT22;9677;50.656;13.064;2023-06-22T09:00:08;32.10;48.60
19090;DHT22;9677;50.656;13.064;2023-06-22T09:02:44;32.20;48.40
19090;DHT22;9677;50.656;13.064;2023-06-22T09:05:13;32.40;48.50
19090;DHT22;9677;50.656;13.064;2023-06-22T09:07:42;32.50;48.10
19090;DHT22;9677;50.656;13.064;2023-06-22T09:10:12;32.60;47.70
19090;DHT22;9677;50.656;13.064;2023-06-22T09:12:40;32.90;47.40
19090;DHT22;9677;50.656;13.064;2023-06-22T09:15:09;32.90;47.40
19090;DHT22;9677;50.656;13.064;2023-06-22T09:17:43;33.10;47.20
19090;DHT22;9677;50.656;13.064;2023-06-22T09:20:13;33.30;47.20
19090;DHT22;9677;50.656;13.064;2023-06-22T09:22:42;33.40;47.10
19090;DHT22;9677;50.656;13.064;2023-06-22T09:25:12;33.50;46.90
19090;DHT22;9677;50.656;13.064;2023-06-22T09:27:40;33.70;47.40
19090;DHT22;9677;50.656;13.064;2023-06-22T09:30:08;33.80;46.60
19090;DHT22;9677;50.656;13.064;2023-06-22T09:32:37;33.90;46.20
19090;DHT22;9677;50.656;13.064;2023-06-22T09:35:06;34.00;46.10
19090;DHT22;9677;50.656;13.064;2023-06-22T09:37:36;34.20;45.70
19090;DHT22;9677;50.656;13.064;2023-06-22T09:40:06;34.30;45.60
19090;DHT22;9677;50.656;13.064;2023-06-22T09:42:39;34.40;45.30
19090;DHT22;9677;50.656;13.064;2023-06-22T09:45:08;34.40;45.00
19090;DHT22;9677;50.656;13.064;2023-06-22T09:47:36;34.50;45.00
19090;DHT22;9677;50.656;13.064;2023-06-22T09:50:05;34.60;44.90
19090;DHT22;9677;50.656;13.064;2023-06-22T09:52:34;34.70;44.80
19090;DHT22;9677;50.656;13.064;2023-06-22T09:55:05;34.80;44.80
19090;DHT22;9677;50.656;13.064;2023-06-22T09:57:34;34.90;44.50
19090;DHT22;9677;50.656;13.064;2023-06-22T10:00:05;35.00;44.20
19090;DHT22;9677;50.656;13.064;2023-06-22T10:02:38;35.10;43.90
19090;DHT22;9677;50.656;13.064;2023-06-22T10:05:07;35.20;44.10
19090;DHT22;9677;50.656;13.064;2023-06-22T10:07:36;35.30;44.00
19090;DHT22;9677;50.656;13.064;2023-06-22T10:10:07;35.40;44.00
19090;DHT22;9677;50.656;13.064;2023-06-22T10:12:36;35.50;43.90
19090;DHT22;9677;50.656;13.064;2023-06-22T10:15:06;35.60;43.30
19090;DHT22;9677;50.656;13.064;2023-06-22T10:17:35;35.70;43.40
19090;DHT22;9677;50.656;13.064;2023-06-22T10:20:04;35.90;43.50
19090;DHT22;9677;50.656;13.064;2023-06-22T10:22:40;36.00;43.40
19090;DHT22;9677;50.656;13.064;2023-06-22T10:25:09;36.10;43.00
19090;DHT22;9677;50.656;13.064;2023-06-22T10:27:38;36.30;43.10
19090;DHT22;9677;50.656;13.064;2023-06-22T10:30:11;36.40;42.70
19090;DHT22;9677;50.656;13.064;2023-06-22T10:32:41;36.50;42.10
19090;DHT22;9677;50.656;13.064;2023-06-22T10:35:11;36.70;42.30
19090;DHT22;9677;50.656;13.064;2023-06-22T10:37:43;37.10;42.40
19090;DHT22;9677;50.656;13.064;2023-06-22T10:40:13;36.90;42.00
19090;DHT22;9677;50.656;13.064;2023-06-22T10:42:42;37.00;41.30
19090;DHT22;9677;50.656;13.064;2023-06-22T10:45:12;37.10;41.50
19090;DHT22;9677;50.656;13.064;2023-06-22T10:47:41;37.10;41.30
19090;DHT22;9677;50.656;13.064;2023-06-22T10:50:10;37.30;41.50
19090;DHT22;9677;50.656;13.064;2023-06-22T10:52:41;37.40;41.20
19090;DHT22;9677;50.656;13.064;2023-06-22T10:55:11;37.50;40.90
19090;DHT22;9677;50.656;13.064;2023-06-22T10:57:39;37.60;40.70
19090;DHT22;9677;50.656;13.064;2023-06-22T11:00:13;37.70;40.40
19090;DHT22;9677;50.656;13.064;2023-06-22T11:02:43;37.70;40.50
19090;DHT22;9677;50.656;13.064;2023-06-22T11:05:11;37.80;40.20
19090;DHT22;9677;50.656;13.064;2023-06-22T11:07:41;37.80;39.90
19090;DHT22;9677;50.656;13.064;2023-06-22T11:13:10;37.90;39.30
19090;DHT22;9677;50.656;13.064;2023-06-22T11:18:35;38.10;39.50
19090;DHT22;9677;50.656;13.064;2023-06-22T11:21:05;38.10;39.30
19090;DHT22;9677;50.656;13.064;2023-06-22T11:23:36;38.30;39.10
19090;DHT22;9677;50.656;13.064;2023-06-22T11:26:04;38.60;38.70
19090;DHT22;9677;50.656;13.064;2023-06-22T11:28:33;38.20;38.50
19090;DHT22;9677;50.656;13.064;2023-06-22T11:31:03;38.40;38.30
19090;DHT22;9677;50.656;13.064;2023-06-22T11:33:53;38.10;39.10
19090;DHT22;9677;50.656;13.064;2023-06-22T11:36:21;38.10;38.30
19090;DHT22;9677;50.656;13.064;2023-06-22T11:38:54;38.10;38.70
19090;DHT22;9677;50.656;13.064;2023-06-22T11:41:23;38.20;38.30
19090;DHT22;9677;50.656;13.064;2023-06-22T11:43:53;38.10;38.70
19090;DHT22;9677;50.656;13.064;2023-06-22T11:46:23;38.40;38.40
19090;DHT22;9677;50.656;13.064;2023-06-22T11:48:52;38.50;38.60
19090;DHT22;9677;50.656;13.064;2023-06-22T11:51:21;38.20;38.30
19090;DHT22;9677;50.656;13.064;2023-06-22T11:53:50;38.30;38.30
19090;DHT22;9677;50.656;13.064;2023-06-22T11:56:18;38.40;38.30
19090;DHT22;9677;50.656;13.064;2023-06-22T11:58:47;38.40;38.10
19090;DHT22;9677;50.656;13.064;2023-06-22T12:01:15;38.60;37.70
19090;DHT22;9677;50.656;13.064;2023-06-22T12:03:43;38.40;37.50
19090;DHT22;9677;50.656;13.064;2023-06-22T12:06:13;38.40;37.50
19090;DHT22;9677;50.656;13.064;2023-06-22T12:08:41;38.50;37.30
19090;DHT22;9677;50.656;13.064;2023-06-22T12:11:09;38.30;37.20
19090;DHT22;9677;50.656;13.064;2023-06-22T12:13:38;38.50;37.50
19090;DHT22;9677;50.656;13.064;2023-06-22T12:16:07;38.50;37.30
19090;DHT22;9677;50.656;13.064;2023-06-22T12:18:39;38.50;37.50
19090;DHT22;9677;50.656;13.064;2023-06-22T12:21:07;38.50;37.40
19090;DHT22;9677;50.656;13.064;2023-06-22T12:23:37;38.60;37.20
19090;DHT22;9677;50.656;13.064;2023-06-22T12:26:06;38.70;37.30
19090;DHT22;9677;50.656;13.064;2023-06-22T12:28:34;38.70;37.20
19090;DHT22;9677;50.656;13.064;2023-06-22T12:31:02;38.80;37.20
19090;DHT22;9677;50.656;13.064;2023-06-22T12:33:31;38.90;37.10
19090;DHT22;9677;50.656;13.064;2023-06-22T12:35:59;38.90;37.00
19090;DHT22;9677;50.656;13.064;2023-06-22T12:38:27;39.00;36.90
19090;DHT22;9677;50.656;13.064;2023-06-22T12:40:57;39.10;36.60
19090;DHT22;9677;50.656;13.064;2023-06-22T12:43:25;39.00;36.40
19090;DHT22;9677;50.656;13.064;2023-06-22T12:45:53;39.00;36.40
19090;DHT22;9677;50.656;13.064;2023-06-22T12:48:22;39.00;36.10
19090;DHT22;9677;50.656;13.064;2023-06-22T12:50:51;39.00;36.10
19090;DHT22;9677;50.656;13.064;2023-06-22T12:53:23;39.00;35.90
19090;DHT22;9677;50.656;13.064;2023-06-22T12:55:54;38.90;36.00
19090;DHT22;9677;50.656;13.064;2023-06-22T12:58:24;38.90;36.00
19090;DHT22;9677;50.656;13.064;2023-06-22T13:00:55;39.00;35.60
19090;DHT22;9677;50.656;13.064;2023-06-22T13:03:23;38.80;35.80
19090;DHT22;9677;50.656;13.064;2023-06-22T13:05:54;38.70;35.80
19090;DHT22;9677;50.656;13.064;2023-06-22T13:08:22;38.60;35.60
19090;DHT22;9677;50.656;13.064;2023-06-22T13:11:10;38.50;35.60
19090;DHT22;9677;50.656;13.064;2023-06-22T13:13:40;38.50;35.80
19090;DHT22;9677;50.656;13.064;2023-06-22T13:16:08;38.30;35.60
19090;DHT22;9677;50.656;13.064;2023-06-22T13:18:44;38.20;35.70
19090;DHT22;9677;50.656;13.064;2023-06-22T13:21:14;38.20;35.90
19090;DHT22;9677;50.656;13.064;2023-06-22T13:23:43;38.20;36.20
19090;DHT22;9677;50.656;13.064;2023-06-22T13:26:11;38.10;36.00
19090;DHT22;9677;50.656;13.064;2023-06-22T13:28:40;38.10;36.10
19090;DHT22;9677;50.656;13.064;2023-06-22T13:31:08;38.10;36.00
19090;DHT22;9677;50.656;13.064;2023-06-22T13:33:37;38.00;36.10
19090;DHT22;9677;50.656;13.064;2023-06-22T13:36:07;38.00;36.30
19090;DHT22;9677;50.656;13.064;2023-06-22T13:38:35;38.00;36.30
19090;DHT22;9677;50.656;13.064;2023-06-22T13:41:05;38.10;36.40
19090;DHT22;9677;50.656;13.064;2023-06-22T13:43:33;38.10;36.30
19090;DHT22;9677;50.656;13.064;2023-06-22T13:46:03;38.10;36.90
19090;DHT22;9677;50.656;13.064;2023-06-22T13:48:31;38.20;36.20
19090;DHT22;9677;50.656;13.064;2023-06-22T13:50:59;38.20;36.10
19090;DHT22;9677;50.656;13.064;2023-06-22T13:53:27;38.30;36.20
19090;DHT22;9677;50.656;13.064;2023-06-22T13:55:56;38.40;36.20
19090;DHT22;9677;50.656;13.064;2023-06-22T13:58:24;38.40;35.90
19090;DHT22;9677;50.656;13.064;2023-06-22T14:00:52;38.50;35.90
19090;DHT22;9677;50.656;13.064;2023-06-22T14:03:24;38.50;35.70
19090;DHT22;9677;50.656;13.064;2023-06-22T14:05:52;38.50;35.50
19090;DHT22;9677;50.656;13.064;2023-06-22T14:08:23;38.50;35.70
19090;DHT22;9677;50.656;13.064;2023-06-22T14:11:07;38.50;35.70
19090;DHT22;9677;50.656;13.064;2023-06-22T14:13:36;38.50;35.60
19090;DHT22;9677;50.656;13.064;2023-06-22T14:16:04;38.50;35.30
19090;DHT22;9677;50.656;13.064;2023-06-22T14:18:34;38.50;35.30
19090;DHT22;9677;50.656;13.064;2023-06-22T14:21:02;38.50;35.40
19090;DHT22;9677;50.656;13.064;2023-06-22T14:23:30;38.50;35.50
19090;DHT22;9677;50.656;13.064;2023-06-22T14:25:58;38.40;35.40
19090;DHT22;9677;50.656;13.064;2023-06-22T14:28:26;38.40;35.60
19090;DHT22;9677;50.656;13.064;2023-06-22T14:30:54;38.40;35.50
19090;DHT22;9677;50.656;13.064;2023-06-22T14:33:23;38.40;35.50
19090;DHT22;9677;50.656;13.064;2023-06-22T14:35:52;38.40;35.40
19090;DHT22;9677;50.656;13.064;2023-06-22T14:38:21;38.40;35.30
19090;DHT22;9677;50.656;13.064;2023-06-22T14:40:49;38.40;35.20
19090;DHT22;9677;50.656;13.064;2023-06-22T14:43:37;38.30;35.10
19090;DHT22;9677;50.656;13.064;2023-06-22T14:46:05;38.20;35.00
19090;DHT22;9677;50.656;13.064;2023-06-22T14:48:35;38.20;35.20
19090;DHT22;9677;50.656;13.064;2023-06-22T14:51:05;38.20;35.20
19090;DHT22;9677;50.656;13.064;2023-06-22T14:53:33;38.10;35.10
19090;DHT22;9677;50.656;13.064;2023-06-22T14:56:01;38.10;35.40
19090;DHT22;9677;50.656;13.064;2023-06-22T14:58:30;38.10;35.40
19090;DHT22;9677;50.656;13.064;2023-06-22T15:01:00;38.10;35.40
19090;DHT22;9677;50.656;13.064;2023-06-22T15:03:29;38.10;35.40
19090;DHT22;9677;50.656;13.064;2023-06-22T15:05:59;38.00;35.40
19090;DHT22;9677;50.656;13.064;2023-06-22T15:08:28;38.00;35.40
19090;DHT22;9677;50.656;13.064;2023-06-22T15:10:58;38.00;35.50
19090;DHT22;9677;50.656;13.064;2023-06-22T15:13:28;38.00;35.60
19090;DHT22;9677;50.656;13.064;2023-06-22T15:15:59;38.00;35.60
19090;DHT22;9677;50.656;13.064;2023-06-22T15:18:28;38.00;35.50
19090;DHT22;9677;50.656;13.064;2023-06-22T15:20:56;38.00;35.60
19090;DHT22;9677;50.656;13.064;2023-06-22T15:23:25;38.00;36.20
19090;DHT22;9677;50.656;13.064;2023-06-22T15:25:56;37.90;35.50
19090;DHT22;9677;50.656;13.064;2023-06-22T15:28:25;37.90;35.50
19090;DHT22;9677;50.656;13.064;2023-06-22T15:30:53;37.70;35.40
19090;DHT22;9677;50.656;13.064;2023-06-22T15:33:21;37.90;35.60
19090;DHT22;9677;50.656;13.064;2023-06-22T15:35:49;37.90;35.60
19090;DHT22;9677;50.656;13.064;2023-06-22T15:38:19;37.80;35.70
19090;DHT22;9677;50.656;13.064;2023-06-22T15:40:47;37.80;35.50
19090;DHT22;9677;50.656;13.064;2023-06-22T15:43:17;37.70;35.50
19090;DHT22;9677;50.656;13.064;2023-06-22T15:45:46;37.70;35.50
19090;DHT22;9677;50.656;13.064;2023-06-22T15:48:16;37.70;35.60
19090;DHT22;9677;50.656;13.064;2023-06-22T15:50:44;37.60;35.70